Time;durP1;ratioP1;P1;durP2;ratioP2;P2;SDS_P1;SDS_P2;PMS_P1;PMS_P2;Temp;Humidity;BMP_temperature;BMP_pressure;BME280_temperature;BME280_humidity;BME280_pressure;Samples;Min_cycle;Max_cycle;Signal;HPM_P1;HPM_P2
2022/05/20 00:01:45;;;;;;;3.53;1.35;;;17.20;53.20;;;;;;4984541;28;20041;-78
2022/05/20 00:04:11;;;;;;;4.05;1.20;;;17.20;53.20;;;;;;4967233;28;20034;-78
2022/05/20 00:06:37;;;;;;;4.45;1.05;;;17.20;53.30;;;;;;4969730;28;20031;-78
2022/05/20 00:09:03;;;;;;;3.97;1.67;;;17.20;53.40;;;;;;4970257;28;20049;-77
2022/05/20 00:11:29;;;;;;;3.38;1.15;;;17.10;53.30;;;;;;4986425;28;20037;-78
2022/05/20 00:13:55;;;;;;;3.08;1.00;;;17.10;53.40;;;;;;4984198;28;20034;-77
2022/05/20 00:16:21;;;;;;;2.88;1.00;;;17.10;53.40;;;;;;4966979;28;20226;-78
2022/05/20 00:18:46;;;;;;;5.75;1.15;;;17.10;53.50;;;;;;4986487;28;20057;-78
2022/05/20 00:21:13;;;;;;;3.38;1.20;;;17.10;53.60;;;;;;4981592;28;20037;-79
2022/05/20 00:23:39;;;;;;;7.13;2.22;;;17.00;53.50;;;;;;4986454;28;20437;-79
2022/05/20 00:26:04;;;;;;;3.70;1.40;;;17.00;53.60;;;;;;4969910;28;20541;-80
2022/05/20 00:28:30;;;;;;;4.28;0.98;;;17.00;53.80;;;;;;4983645;28;20046;-78
2022/05/20 00:31:00;;;;;;;4.43;1.40;;;16.90;53.70;;;;;;4980881;28;20080;-77
2022/05/20 00:33:27;;;;;;;3.78;1.23;;;16.90;53.80;;;;;;4985675;28;20484;-78
2022/05/20 00:35:54;;;;;;;3.63;1.08;;;16.90;53.90;;;;;;4982075;28;20034;-77
2022/05/20 00:38:21;;;;;;;2.72;1.00;;;16.80;53.80;;;;;;4969472;28;20030;-77
2022/05/20 00:40:49;;;;;;;5.70;1.58;;;16.80;54.00;;;;;;4967044;28;20040;-78
2022/05/20 00:43:24;;;;;;;2.63;1.10;;;16.80;54.10;;;;;;4979208;28;20027;-78
2022/05/20 00:45:50;;;;;;;3.05;1.60;;;16.80;54.20;;;;;;4985918;28;20118;-77
2022/05/20 00:48:17;;;;;;;4.72;1.98;;;16.80;54.20;;;;;;4985655;28;20050;-78
2022/05/20 00:50:49;;;;;;;3.10;1.13;;;16.70;54.10;;;;;;4985980;28;20454;-79
2022/05/20 00:53:18;;;;;;;4.40;1.20;;;16.70;54.20;;;;;;4978368;28;20261;-79
2022/05/20 00:55:45;;;;;;;5.38;1.13;;;16.70;54.20;;;;;;4969944;28;20050;-79
2022/05/20 00:58:17;;;;;;;3.15;1.33;;;16.70;54.30;;;;;;4968346;28;20084;-79
2022/05/20 01:00:49;;;;;;;3.53;0.98;;;16.70;54.40;;;;;;4960603;28;20494;-79
2022/05/20 01:03:18;;;;;;;4.00;1.85;;;16.70;54.50;;;;;;4985926;28;20027;-79
2022/05/20 01:05:50;;;;;;;4.95;1.77;;;16.60;54.40;;;;;;4981856;28;20030;-80
2022/05/20 01:08:20;;;;;;;3.58;1.42;;;16.60;55.00;;;;;;4986552;28;20057;-80
2022/05/20 01:10:47;;;;;;;5.10;1.65;;;16.60;55.00;;;;;;4983500;28;20128;-80
2022/05/20 01:13:15;;;;;;;3.63;1.23;;;16.60;54.50;;;;;;4968489;28;20050;-79
2022/05/20 01:15:42;;;;;;;3.15;1.05;;;16.60;54.60;;;;;;4993079;28;20221;-80
2022/05/20 01:18:08;;;;;;;5.05;1.35;;;16.60;54.70;;;;;;4984874;28;20560;-79
2022/05/20 01:20:38;;;;;;;3.85;1.40;;;16.60;54.70;;;;;;4993511;28;20104;-79
2022/05/20 01:23:10;;;;;;;5.35;1.40;;;16.60;54.80;;;;;;4984969;28;20034;-79
2022/05/20 01:25:39;;;;;;;5.15;1.20;;;16.60;54.90;;;;;;4959016;28;20026;-79
2022/05/20 01:28:05;;;;;;;5.38;1.00;;;16.50;54.80;;;;;;4981234;28;20026;-80
2022/05/20 01:30:32;;;;;;;5.55;1.88;;;16.50;54.80;;;;;;4983055;28;20041;-80
2022/05/20 01:33:05;;;;;;;3.45;1.40;;;16.50;54.90;;;;;;4967957;28;20023;-79
2022/05/20 01:35:34;;;;;;;3.42;1.15;;;16.50;55.00;;;;;;4968316;28;20049;-80
2022/05/20 01:38:00;;;;;;;4.25;1.52;;;16.50;55.60;;;;;;4981536;28;20516;-78
2022/05/20 01:40:30;;;;;;;4.47;1.15;;;16.50;55.10;;;;;;4986391;28;20251;-80
2022/05/20 01:43:11;;;;;;;4.55;1.23;;;16.50;55.20;;;;;;4966757;28;20030;-78
2022/05/20 01:45:57;;;;;;;2.47;1.08;;;16.40;55.10;;;;;;4983706;28;20320;-80
2022/05/20 01:48:32;;;;;;;4.75;1.50;;;16.40;55.20;;;;;;4989626;28;20042;-78
2022/05/20 01:51:02;;;;;;;5.43;1.02;;;16.40;55.20;;;;;;4955919;28;20430;-79
2022/05/20 01:53:46;;;;;;;4.60;1.35;;;16.40;55.20;;;;;;4976865;28;20031;-78
2022/05/20 01:56:21;;;;;;;4.15;1.30;;;16.40;55.40;;;;;;4983966;28;20067;-78
2022/05/20 01:59:12;;;;;;;3.80;1.30;;;16.30;55.30;;;;;;4983153;28;20113;-79
2022/05/20 02:01:45;;;;;;;4.70;1.20;;;16.30;55.40;;;;;;4985669;28;20182;-79
2022/05/20 02:04:18;;;;;;;6.40;1.75;;;16.30;55.40;;;;;;4988246;28;20077;-79
2022/05/20 02:06:51;;;;;;;;;;;16.30;55.50;;;;;;4985841;28;20022;-79
2022/05/20 02:09:24;;;;;;;3.50;1.08;;;16.30;55.40;;;;;;4986594;28;19983;-79
2022/05/20 02:11:53;;;;;;;3.47;1.40;;;16.30;55.30;;;;;;4987191;28;20038;-79
2022/05/20 02:14:33;;;;;;;2.65;1.00;;;16.30;55.30;;;;;;4992001;28;20037;-79
2022/05/20 02:17:06;;;;;;;4.30;1.27;;;16.20;55.40;;;;;;4975684;28;20117;-79
2022/05/20 02:19:40;;;;;;;;;;;16.20;55.50;;;;;;4987843;28;20014;-80
2022/05/20 02:22:11;;;;;;;6.70;1.88;;;16.20;55.40;;;;;;4969679;28;20154;-79
2022/05/20 02:24:39;;;;;;;5.38;1.90;;;16.20;55.40;;;;;;4988525;28;20034;-79
2022/05/20 02:27:08;;;;;;;2.33;1.10;;;16.20;55.50;;;;;;4986438;28;20380;-79
2022/05/20 02:29:42;;;;;;;3.83;1.40;;;16.10;55.50;;;;;;4987700;28;20248;-77
2022/05/20 02:32:18;;;;;;;3.53;1.75;;;16.10;55.70;;;;;;4979870;28;20034;-80
2022/05/20 02:34:44;;;;;;;1.75;1.30;;;16.20;55.90;;;;;;4986732;28;20031;-79
2022/05/20 02:37:40;;;;;;;5.10;1.67;;;16.10;55.80;;;;;;4967839;28;20436;-79
2022/05/20 02:40:09;;;;;;;3.95;1.30;;;16.10;56.00;;;;;;4968981;28;20436;-79
2022/05/20 02:42:35;;;;;;;5.65;1.42;;;16.10;55.90;;;;;;4993631;28;20030;-79
2022/05/20 02:45:02;;;;;;;3.85;1.20;;;16.10;55.90;;;;;;4989705;28;20375;-80
2022/05/20 02:47:31;;;;;;;6.28;1.52;;;16.10;56.00;;;;;;4989371;28;20093;-80
2022/05/20 02:49:58;;;;;;;4.68;1.20;;;16.10;56.10;;;;;;4972789;28;20046;-80
2022/05/20 02:52:24;;;;;;;5.15;1.33;;;16.10;56.20;;;;;;4990196;28;20300;-79
2022/05/20 02:54:50;;;;;;;6.82;1.80;;;16.10;56.20;;;;;;4984474;28;20071;-79
2022/05/20 02:57:19;;;;;;;3.58;1.25;;;16.10;56.20;;;;;;4989404;28;20040;-80
2022/05/20 03:05:19;;;;;;;4.43;1.30;;;16.00;56.30;;;;;;4989805;28;20026;-79
2022/05/20 03:07:44;;;;;;;3.67;0.98;;;16.00;56.30;;;;;;4987270;28;20038;-79
2022/05/20 03:10:10;;;;;;;4.05;1.25;;;16.00;56.40;;;;;;4989931;28;20042;-79
2022/05/20 03:12:37;;;;;;;5.47;1.58;;;16.00;56.50;;;;;;4970921;28;20034;-79
2022/05/20 03:15:05;;;;;;;4.43;0.93;;;16.00;56.60;;;;;;4972061;28;20031;-79
2022/05/20 03:17:32;;;;;;;1.33;0.90;;;15.90;56.50;;;;;;4979323;28;20026;-79
2022/05/20 03:19:58;;;;;;;3.97;1.77;;;15.90;56.60;;;;;;4971688;28;20038;-79
2022/05/20 03:22:24;;;;;;;6.75;2.63;;;15.90;56.70;;;;;;4972506;28;20078;-79
2022/05/20 03:24:50;;;;;;;2.53;1.45;;;15.90;56.80;;;;;;4983345;28;20097;-80
2022/05/20 03:27:19;;;;;;;2.85;0.90;;;15.80;56.70;;;;;;4988917;28;20117;-79
2022/05/20 03:29:45;;;;;;;3.60;1.13;;;15.90;57.00;;;;;;4988657;28;20486;-79
2022/05/20 03:32:12;;;;;;;3.92;1.35;;;15.90;57.00;;;;;;4989695;28;20026;-79
2022/05/20 03:34:39;;;;;;;4.70;1.08;;;15.80;56.90;;;;;;4972388;28;20123;-79
2022/05/20 03:37:06;;;;;;;3.85;1.10;;;15.80;57.00;;;;;;4984970;28;20030;-80
2022/05/20 03:39:32;;;;;;;5.95;1.52;;;15.80;57.10;;;;;;4972209;28;20114;-79
2022/05/20 03:41:58;;;;;;;3.95;1.00;;;15.80;57.10;;;;;;4991810;28;20038;-79
2022/05/20 03:44:25;;;;;;;3.33;1.13;;;15.80;57.10;;;;;;4988732;28;20501;-79
2022/05/20 03:46:54;;;;;;;3.53;1.40;;;15.80;57.20;;;;;;4983933;28;20071;-80
2022/05/20 03:49:23;;;;;;;4.85;1.67;;;15.80;57.30;;;;;;4969368;28;20035;-79
2022/05/20 03:51:49;;;;;;;3.28;1.05;;;15.80;57.30;;;;;;4958926;28;20031;-80
2022/05/20 03:54:17;;;;;;;5.57;1.42;;;15.70;57.20;;;;;;4961530;28;20034;-80
2022/05/20 03:56:43;;;;;;;3.30;1.50;;;15.80;57.40;;;;;;4969567;28;20022;-81
2022/05/20 03:59:10;;;;;;;2.10;1.02;;;15.70;57.30;;;;;;4951961;28;20054;-81
2022/05/20 04:04:34;;;;;;;4.30;1.50;;;15.70;57.40;;;;;;4969860;28;20023;-80
2022/05/20 04:07:01;;;;;;;4.95;1.30;;;15.70;57.40;;;;;;4970116;28;20042;-80
2022/05/20 04:09:27;;;;;;;6.07;2.67;;;15.70;57.50;;;;;;4966916;28;20034;-81
2022/05/20 04:11:56;;;;;;;4.38;1.30;;;15.70;57.50;;;;;;4980841;28;20041;-80
2022/05/20 04:14:23;;;;;;;4.72;1.10;;;15.60;57.50;;;;;;4992516;28;20161;-79
2022/05/20 04:16:55;;;;;;;2.63;1.30;;;15.60;57.50;;;;;;4974569;28;20035;-80
2022/05/20 04:19:22;;;;;;;2.78;1.10;;;15.60;58.20;;;;;;5000015;28;20503;-78
2022/05/20 04:21:51;;;;;;;2.85;1.05;;;15.60;57.60;;;;;;4968941;28;20035;-80
2022/05/20 04:24:16;;;;;;;3.40;1.00;;;15.60;57.70;;;;;;4992705;28;20040;-79
2022/05/20 04:26:42;;;;;;;4.93;1.73;;;15.60;57.80;;;;;;4994044;28;20039;-78
2022/05/20 04:29:08;;;;;;;2.42;1.38;;;15.60;57.80;;;;;;4992470;28;20126;-78
2022/05/20 04:31:34;;;;;;;3.95;1.23;;;15.60;57.90;;;;;;4980091;28;20480;-79
2022/05/20 04:34:00;;;;;;;4.43;1.13;;;15.50;57.80;;;;;;4968462;28;20399;-78
2022/05/20 04:36:26;;;;;;;5.65;2.13;;;15.50;57.90;;;;;;4965883;28;20027;-79
2022/05/20 04:38:52;;;;;;;2.00;1.10;;;15.50;57.90;;;;;;4981666;28;20331;-80
2022/05/20 04:46:56;;;;;;;3.55;1.10;;;15.50;58.10;;;;;;4973003;28;20050;-80
2022/05/20 04:49:27;;;;;;;2.95;1.63;;;15.50;58.10;;;;;;4978687;28;20298;-80
2022/05/20 04:51:53;;;;;;;4.35;1.63;;;15.50;58.20;;;;;;4980713;28;20034;-79
2022/05/20 04:57:04;;;;;;;4.78;1.60;;;15.50;58.30;;;;;;4971919;28;20041;-79
2022/05/20 04:59:34;;;;;;;2.05;1.08;;;15.50;58.20;;;;;;4966127;28;20031;-79
2022/05/20 05:02:00;;;;;;;4.15;1.27;;;15.50;58.30;;;;;;4986340;28;20030;-79
2022/05/20 05:04:26;;;;;;;3.42;1.65;;;15.50;58.30;;;;;;4987478;28;20041;-80
2022/05/20 05:06:52;;;;;;;5.95;2.25;;;15.50;58.30;;;;;;4985609;28;20035;-80
2022/05/20 05:09:18;;;;;;;3.60;1.33;;;15.50;58.40;;;;;;4986882;28;20112;-79
2022/05/20 05:11:44;;;;;;;4.38;1.70;;;15.50;58.40;;;;;;4982222;28;20125;-80
2022/05/20 05:14:14;;;;;;;4.70;1.65;;;15.50;58.50;;;;;;4969240;28;20040;-80
2022/05/20 05:16:41;;;;;;;3.10;1.58;;;15.50;58.50;;;;;;4998211;28;20038;-80
2022/05/20 05:19:07;;;;;;;5.60;1.30;;;15.50;58.50;;;;;;4981137;28;20030;-80
2022/05/20 05:21:33;;;;;;;4.25;1.40;;;15.50;58.60;;;;;;4986530;28;20057;-79
2022/05/20 05:24:00;;;;;;;3.70;1.23;;;15.50;58.60;;;;;;4979072;28;20058;-79
2022/05/20 05:26:31;;;;;;;4.72;1.30;;;15.50;58.60;;;;;;4969945;28;20027;-78
2022/05/20 05:28:57;;;;;;;4.18;1.52;;;15.50;58.60;;;;;;4961505;28;20271;-79
2022/05/20 05:31:25;;;;;;;4.45;1.60;;;15.50;58.60;;;;;;4976946;28;20030;-79
2022/05/20 05:33:52;;;;;;;5.70;1.42;;;15.60;58.80;;;;;;4952574;28;20030;-79
2022/05/20 05:36:19;;;;;;;3.85;1.38;;;15.60;58.80;;;;;;4979424;28;20038;-77
2022/05/20 05:38:46;;;;;;;3.50;1.20;;;15.60;58.90;;;;;;4976994;28;20038;-79
2022/05/20 05:41:13;;;;;;;1.75;1.15;;;15.60;58.90;;;;;;4963175;28;20043;-78
2022/05/20 05:43:39;;;;;;;4.50;1.38;;;15.60;58.90;;;;;;4977570;28;20026;-80
2022/05/20 05:46:05;;;;;;;3.08;1.17;;;15.60;58.80;;;;;;4956759;28;20030;-80
2022/05/20 05:48:31;;;;;;;4.72;1.75;;;15.60;58.90;;;;;;4980456;28;20364;-79
2022/05/20 05:50:58;;;;;;;4.25;1.27;;;15.60;58.90;;;;;;4983833;28;20074;-83
2022/05/20 05:53:25;;;;;;;5.50;1.48;;;15.60;58.90;;;;;;4982065;28;20173;-77
2022/05/20 05:55:59;;;;;;;5.93;1.27;;;15.70;59.10;;;;;;4980438;28;20538;-77
2022/05/20 05:58:27;;;;;;;2.85;1.35;;;15.70;59.10;;;;;;4976267;28;20033;-76
2022/05/20 06:00:54;;;;;;;4.28;1.30;;;15.70;59.10;;;;;;4983035;28;20034;-75
2022/05/20 06:03:20;;;;;;;3.20;1.13;;;15.70;59.20;;;;;;4975682;28;20026;-76
2022/05/20 06:05:46;;;;;;;3.42;1.08;;;15.70;59.20;;;;;;4956127;28;20033;-77
2022/05/20 06:08:13;;;;;;;4.30;1.10;;;15.70;59.20;;;;;;4975582;28;20038;-78
2022/05/20 06:10:40;;;;;;;4.53;1.75;;;15.80;59.40;;;;;;4972737;28;20088;-79
2022/05/20 06:13:06;;;;;;;3.70;1.42;;;15.80;59.40;;;;;;4980244;28;20195;-75
2022/05/20 06:15:32;;;;;;;3.72;2.53;;;15.80;59.40;;;;;;4985241;28;20053;-77
2022/05/20 06:17:58;;;;;;;4.60;2.33;;;15.80;59.40;;;;;;4980145;28;20048;-77
2022/05/20 06:20:25;;;;;;;4.03;1.55;;;15.80;59.50;;;;;;4978563;28;20038;-76
2022/05/20 06:22:51;;;;;;;5.28;1.65;;;15.80;59.50;;;;;;4984047;28;20031;-76
2022/05/20 06:25:18;;;;;;;4.00;1.75;;;15.80;59.60;;;;;;4975367;28;20085;-76
2022/05/20 06:27:45;;;;;;;4.10;1.40;;;15.80;59.60;;;;;;4966420;28;20035;-85
2022/05/20 06:30:14;;;;;;;4.28;1.42;;;15.80;59.60;;;;;;4980718;28;20080;-74
2022/05/20 06:32:40;;;;;;;6.28;2.38;;;15.80;59.70;;;;;;4981691;28;20080;-75
2022/05/20 06:40:44;;;;;;;4.82;2.03;;;15.80;59.80;;;;;;4983764;28;20046;-76
2022/05/20 06:43:16;;;;;;;5.18;1.80;;;15.80;60.30;;;;;;4984689;28;20030;-75
2022/05/20 06:45:43;;;;;;;4.13;1.60;;;15.90;60.10;;;;;;4985257;28;20061;-75
2022/05/20 06:48:08;;;;;;;6.13;2.63;;;15.80;59.90;;;;;;4977505;28;20493;-75
2022/05/20 06:50:39;;;;;;;3.38;1.30;;;15.90;60.10;;;;;;4984115;28;20042;-75
2022/05/20 06:53:06;;;;;;;7.32;2.97;;;15.90;60.20;;;;;;4983023;28;20489;-74
2022/05/20 06:55:32;;;;;;;2.65;1.95;;;15.90;60.10;;;;;;4977465;28;20042;-75
2022/05/20 06:57:57;;;;;;;4.90;1.30;;;15.90;60.60;;;;;;4981542;28;20285;-75
2022/05/20 07:00:24;;;;;;;2.72;1.48;;;16.00;60.30;;;;;;4983884;28;20266;-75
2022/05/20 07:02:49;;;;;;;5.28;2.28;;;16.00;60.30;;;;;;4976890;28;20556;-75
2022/05/20 07:05:15;;;;;;;5.00;1.60;;;16.00;60.30;;;;;;4964973;28;20034;-75
2022/05/20 07:07:41;;;;;;;3.60;1.67;;;16.00;60.20;;;;;;4986057;28;20022;-73
2022/05/20 07:10:10;;;;;;;5.47;2.17;;;16.10;60.30;;;;;;4969706;28;20513;-72
2022/05/20 07:12:36;;;;;;;2.92;1.05;;;16.10;60.30;;;;;;4984491;28;20022;-73
2022/05/20 07:15:03;;;;;;;4.45;1.00;;;16.20;60.30;;;;;;4984050;28;20030;-74
2022/05/20 07:17:29;;;;;;;3.65;1.23;;;16.20;60.20;;;;;;4984650;28;20034;-74
2022/05/20 07:19:55;;;;;;;3.70;1.67;;;16.30;60.30;;;;;;4983461;28;20046;-74
2022/05/20 07:22:21;;;;;;;3.88;1.20;;;16.30;60.20;;;;;;4980673;28;20699;-74
2022/05/20 07:24:47;;;;;;;3.95;1.38;;;16.40;60.30;;;;;;4950821;28;20045;-74
2022/05/20 07:27:14;;;;;;;2.03;0.80;;;16.40;60.10;;;;;;4962547;28;20222;-74
2022/05/20 07:29:40;;;;;;;3.90;1.13;;;16.50;60.20;;;;;;4985173;28;20104;-74
2022/05/20 07:32:06;;;;;;;2.90;1.02;;;16.50;60.10;;;;;;4967306;28;20038;-75
2022/05/20 07:34:33;;;;;;;4.93;1.50;;;16.60;60.10;;;;;;4987729;28;20038;-75
2022/05/20 07:36:59;;;;;;;3.50;1.60;;;16.60;60.00;;;;;;4982106;28;20409;-73
2022/05/20 07:39:26;;;;;;;4.15;1.20;;;16.70;60.10;;;;;;4983428;28;20034;-74
2022/05/20 07:41:52;;;;;;;4.95;1.30;;;16.80;60.20;;;;;;4983120;28;20117;-73
2022/05/20 07:44:18;;;;;;;4.32;1.30;;;16.80;60.10;;;;;;4983318;28;20026;-74
2022/05/20 07:46:45;;;;;;;7.50;2.20;;;16.80;60.00;;;;;;4978169;28;20124;-74
2022/05/20 07:49:11;;;;;;;3.72;1.02;;;16.80;59.90;;;;;;4983277;28;20049;-74
2022/05/20 07:51:42;;;;;;;3.72;1.50;;;16.90;60.00;;;;;;4985179;28;20367;-74
2022/05/20 07:54:14;;;;;;;4.85;1.42;;;16.90;60.00;;;;;;4982216;28;20129;-74
2022/05/20 07:56:44;;;;;;;3.80;1.23;;;17.00;60.10;;;;;;4966274;28;20250;-74
2022/05/20 07:59:24;;;;;;;3.50;0.70;;;17.00;59.90;;;;;;4984547;28;20449;-73
2022/05/20 08:01:52;;;;;;;4.45;1.67;;;17.10;60.00;;;;;;4977801;28;20042;-76
2022/05/20 08:07:05;;;;;;;4.65;1.38;;;17.20;59.90;;;;;;4982843;28;20133;-82
2022/05/20 08:09:32;;;;;;;4.38;1.52;;;17.20;59.80;;;;;;4982937;28;20077;-74
2022/05/20 08:11:58;;;;;;;2.45;0.80;;;17.30;59.90;;;;;;4982079;28;20037;-77
2022/05/20 08:14:26;;;;;;;2.97;1.13;;;17.30;59.80;;;;;;4983925;28;20045;-74
2022/05/20 08:16:53;;;;;;;2.20;0.90;;;17.30;59.70;;;;;;4980426;28;20022;-74
2022/05/20 08:19:19;;;;;;;3.42;1.10;;;17.40;59.80;;;;;;4953973;28;20042;-74
2022/05/20 08:21:45;;;;;;;4.53;1.38;;;17.40;59.70;;;;;;4983883;28;20402;-74
2022/05/20 08:24:11;;;;;;;2.47;1.38;;;17.50;59.80;;;;;;4981092;28;20041;-74
2022/05/20 08:26:37;;;;;;;1.70;0.95;;;17.50;59.80;;;;;;4965330;28;20410;-74
2022/05/20 08:29:03;;;;;;;3.63;1.45;;;17.60;59.90;;;;;;4983237;28;20042;-74
2022/05/20 08:31:29;;;;;;;4.20;1.27;;;17.50;59.70;;;;;;4983723;28;20038;-75
2022/05/20 08:33:55;;;;;;;3.25;1.30;;;17.60;59.80;;;;;;4984746;28;20611;-76
2022/05/20 08:36:21;;;;;;;2.83;1.10;;;17.60;59.80;;;;;;4982184;28;20057;-75
2022/05/20 08:38:47;;;;;;;3.35;1.33;;;17.60;59.80;;;;;;4984045;28;20035;-74
2022/05/20 08:41:22;;;;;;;5.72;1.85;;;17.70;60.00;;;;;;4983260;28;20038;-74
2022/05/20 08:43:48;;;;;;;5.13;1.42;;;17.80;60.10;;;;;;4980707;28;20428;-74
2022/05/20 08:46:17;;;;;;;5.05;1.67;;;17.90;60.10;;;;;;4984101;28;20116;-74
2022/05/20 08:48:44;;;;;;;4.57;1.77;;;17.90;59.90;;;;;;4968521;28;20042;-75
2022/05/20 08:51:10;;;;;;;4.20;1.60;;;18.10;60.00;;;;;;4984177;28;20035;-74
2022/05/20 08:53:40;;;;;;;4.25;1.23;;;18.20;60.00;;;;;;4984695;28;20498;-75
2022/05/20 08:56:09;;;;;;;3.95;1.83;;;18.30;59.90;;;;;;4983591;28;20046;-75
2022/05/20 08:58:39;;;;;;;5.20;1.63;;;18.40;59.90;;;;;;4967220;28;20038;-73
2022/05/20 09:01:08;;;;;;;4.50;2.08;;;18.50;59.90;;;;;;4967266;28;20438;-73
2022/05/20 09:03:34;;;;;;;3.97;1.58;;;18.60;59.80;;;;;;4979360;28;20126;-73
2022/05/20 09:06:10;;;;;;;3.65;1.30;;;18.80;59.90;;;;;;4986392;28;20577;-74
2022/05/20 09:08:37;;;;;;;3.63;1.45;;;18.90;59.80;;;;;;4976259;28;20354;-73
2022/05/20 09:11:05;;;;;;;6.47;1.60;;;19.10;59.90;;;;;;4981906;28;20092;-74
2022/05/20 09:16:29;;;;;;;3.90;1.52;;;19.30;59.70;;;;;;4983836;28;20044;-76
2022/05/20 09:19:23;;;;;;;3.15;1.15;;;19.40;59.60;;;;;;4966003;28;20498;-76
2022/05/20 09:22:24;;;;;;;1.73;0.95;;;19.40;59.50;;;;;;4969735;28;20038;-76
2022/05/20 09:24:49;;;;;;;3.72;1.63;;;19.50;59.60;;;;;;4972886;28;20057;-76
2022/05/20 09:27:28;;;;;;;3.20;1.40;;;19.50;59.50;;;;;;4982523;28;20042;-76
2022/05/20 09:30:00;;;;;;;7.38;1.67;;;19.50;59.40;;;;;;4982514;28;20584;-76
2022/05/20 09:32:43;;;;;;;4.30;1.25;;;19.60;59.50;;;;;;4982414;28;20031;-76
2022/05/20 09:35:18;;;;;;;3.15;1.10;;;19.60;59.50;;;;;;4966422;28;20038;-76
2022/05/20 09:37:45;;;;;;;3.63;1.20;;;19.60;59.40;;;;;;4979602;28;20042;-78
2022/05/20 09:40:36;;;;;;;3.88;1.40;;;19.60;59.30;;;;;;4955254;28;20035;-76
2022/05/20 09:43:06;;;;;;;3.22;1.55;;;19.70;59.40;;;;;;4962098;28;20038;-76
2022/05/20 09:45:47;;;;;;;3.50;0.98;;;19.80;59.40;;;;;;4979114;28;20409;-77
2022/05/20 09:48:36;;;;;;;2.83;0.80;;;19.90;59.30;;;;;;4955994;28;20514;-76
2022/05/20 09:51:08;;;;;;;4.40;1.33;;;19.90;59.20;;;;;;4964395;28;20108;-76
2022/05/20 09:53:40;;;;;;;4.00;1.10;;;20.00;59.20;;;;;;4973113;28;20022;-75
2022/05/20 09:56:29;;;;;;;2.88;1.27;;;20.10;59.20;;;;;;4965812;28;20049;-75
2022/05/20 09:59:26;;;;;;;2.10;0.77;;;20.20;59.20;;;;;;4982231;28;20022;-76
2022/05/20 10:02:01;;;;;;;2.17;1.23;;;20.40;59.10;;;;;;4945424;28;20470;-76
2022/05/20 10:04:54;;;;;;;3.00;0.77;;;20.50;59.00;;;;;;4983296;28;20490;-76
2022/05/20 10:07:38;;;;;;;4.00;1.20;;;20.60;58.90;;;;;;4976568;28;20034;-76
2022/05/20 10:10:31;;;;;;;2.08;1.23;;;20.80;58.90;;;;;;4982827;28;20053;-76
2022/05/20 10:12:59;;;;;;;4.72;1.65;;;21.00;58.90;;;;;;4948022;28;20042;-76
2022/05/20 10:15:33;;;;;;;2.67;1.38;;;21.20;59.40;;;;;;4945971;28;20152;-75
2022/05/20 10:18:24;;;;;;;1.98;1.10;;;21.50;58.70;;;;;;4985620;28;20121;-76
2022/05/20 10:21:08;;;;;;;2.38;1.10;;;21.90;58.70;;;;;;4982462;28;20394;-76
2022/05/20 10:24:22;;;;;;;3.15;0.90;;;22.20;58.40;;;;;;4984801;28;20533;-75
2022/05/20 10:26:52;;;;;;;3.50;1.23;;;22.70;58.40;;;;;;4913791;28;20081;-76
2022/05/20 10:32:34;;;;;;;3.70;1.00;;;23.00;57.90;;;;;;4980267;28;20045;-75
2022/05/20 10:35:17;;;;;;;3.03;1.38;;;23.10;57.80;;;;;;4979105;28;20047;-75
2022/05/20 10:38:26;;;;;;;1.90;0.98;;;23.20;57.90;;;;;;4979505;28;20525;-75
2022/05/20 10:40:58;;;;;;;2.08;1.00;;;23.40;57.90;;;;;;4974390;28;20336;-76
2022/05/20 10:50:26;;;;;;;2.30;0.50;;;24.40;57.50;;;;;;4980535;28;20054;-76
2022/05/20 10:53:13;;;;;;;2.00;1.05;;;24.60;57.30;;;;;;4971733;28;20054;-75
2022/05/20 10:55:51;;;;;;;1.80;0.93;;;24.80;57.40;;;;;;4964259;28;20035;-75
2022/05/20 10:58:52;;;;;;;2.70;1.08;;;24.90;57.30;;;;;;4965019;28;20030;-76
2022/05/20 11:01:27;;;;;;;3.08;0.98;;;25.00;57.10;;;;;;4970356;28;20038;-76
2022/05/20 11:04:34;;;;;;;1.70;0.50;;;25.20;56.90;;;;;;4988822;28;20034;-77
2022/05/20 11:07:32;;;;;;;2.75;1.00;;;25.30;56.50;;;;;;4982835;28;20453;-76
2022/05/20 11:10:16;;;;;;;3.80;1.20;;;25.40;56.40;;;;;;4967508;28;20837;-77
2022/05/20 11:13:17;;;;;;;1.92;0.85;;;25.40;56.30;;;;;;4978819;28;20070;-75
2022/05/20 11:16:13;;;;;;;2.20;0.90;;;25.30;56.30;;;;;;4957767;28;20047;-75
2022/05/20 11:19:06;;;;;;;3.40;1.17;;;25.20;56.30;;;;;;4981361;28;20034;-76
2022/05/20 11:21:51;;;;;;;3.05;1.00;;;25.10;56.30;;;;;;4960135;28;20069;-76
2022/05/20 11:24:40;;;;;;;3.75;1.02;;;25.10;56.20;;;;;;4968306;28;20401;-77
2022/05/20 11:27:20;;;;;;;3.15;0.98;;;25.20;56.30;;;;;;4990606;28;20643;-77
2022/05/20 11:30:39;;;;;;;2.72;1.13;;;25.50;56.00;;;;;;4975870;28;20074;-77
2022/05/20 11:33:31;;;;;;;2.70;0.90;;;26.00;55.30;;;;;;4942590;28;20133;-75
2022/05/20 11:36:18;;;;;;;3.08;1.58;;;26.50;54.70;;;;;;4982684;28;20074;-84
2022/05/20 11:39:06;;;;;;;1.42;0.70;;;26.90;54.00;;;;;;4975789;28;20085;-77
2022/05/20 11:42:01;;;;;;;1.75;0.80;;;27.30;53.40;;;;;;4985405;28;20061;-78
2022/05/20 11:44:42;;;;;;;1.63;0.82;;;27.40;52.80;;;;;;4990465;28;20534;-76
2022/05/20 11:47:21;;;;;;;2.50;0.80;;;27.70;52.60;;;;;;4960085;28;20125;-76
2022/05/20 11:49:55;;;;;;;3.00;1.77;;;27.90;52.00;;;;;;4996476;28;20046;-75
2022/05/20 11:52:49;;;;;;;3.05;1.02;;;28.10;51.80;;;;;;4995727;28;20026;-76
2022/05/20 11:55:40;;;;;;;3.17;0.70;;;28.20;51.70;;;;;;4997664;28;20042;-75
2022/05/20 11:58:11;;;;;;;1.83;0.95;;;28.20;51.40;;;;;;5004786;28;20029;-76
2022/05/20 12:00:41;;;;;;;1.92;1.02;;;28.30;51.60;;;;;;4991177;28;20030;-76
2022/05/20 12:03:12;;;;;;;1.33;0.60;;;28.50;51.20;;;;;;4992001;28;20104;-76
2022/05/20 12:05:41;;;;;;;2.65;0.82;;;28.70;50.90;;;;;;4998141;28;20180;-76
2022/05/20 12:08:08;;;;;;;1.67;0.60;;;28.70;50.50;;;;;;5008161;28;20044;-76
2022/05/20 12:10:34;;;;;;;2.58;1.10;;;28.70;50.50;;;;;;4977803;28;20050;-76
2022/05/20 12:13:16;;;;;;;1.73;0.80;;;28.80;50.40;;;;;;4992137;28;20030;-76
2022/05/20 12:15:47;;;;;;;;;;;29.00;49.90;;;;;;4991017;28;20031;-76
2022/05/20 12:24:50;;;;;;;1.40;0.60;;;29.20;49.70;;;;;;5008904;28;20026;-76
2022/05/20 12:27:26;;;;;;;2.70;0.90;;;29.60;49.40;;;;;;4993053;28;20035;-75
2022/05/20 12:30:17;;;;;;;1.85;0.73;;;29.70;48.80;;;;;;4990636;28;20050;-76
2022/05/20 12:32:46;;;;;;;2.72;0.95;;;29.60;48.60;;;;;;4982594;28;20525;-78
2022/05/20 12:35:43;;;;;;;3.20;1.00;;;29.50;48.80;;;;;;4955664;28;20391;-76
2022/05/20 12:38:23;;;;;;;1.27;0.60;;;29.40;48.70;;;;;;4968820;28;20066;-79
2022/05/20 12:40:52;;;;;;;4.75;1.50;;;29.60;48.60;;;;;;4985024;28;20065;-79
2022/05/20 12:43:47;;;;;;;1.48;0.82;;;29.60;48.30;;;;;;4985597;28;20078;-79
2022/05/20 12:46:46;;;;;;;1.98;0.80;;;29.60;47.90;;;;;;4984919;28;20118;-79
2022/05/20 12:49:12;;;;;;;1.85;0.80;;;29.50;48.00;;;;;;4966480;28;20156;-76
2022/05/20 12:51:44;;;;;;;1.58;0.73;;;29.30;48.30;;;;;;4968143;28;20034;-76
2022/05/20 12:54:22;;;;;;;1.63;0.47;;;29.00;48.50;;;;;;4967550;28;20042;-77
2022/05/20 12:57:06;;;;;;;3.13;0.80;;;28.90;48.80;;;;;;4989168;28;20092;-77
2022/05/20 12:59:33;;;;;;;2.17;0.60;;;29.00;48.70;;;;;;4958583;28;20037;-80
2022/05/20 13:02:04;;;;;;;4.47;1.02;;;28.90;48.50;;;;;;4984831;28;20038;-78
2022/05/20 13:04:37;;;;;;;2.58;0.80;;;28.80;48.40;;;;;;4977388;28;20037;-76
2022/05/20 13:07:05;;;;;;;2.58;0.93;;;28.50;48.40;;;;;;4984305;28;20035;-78
2022/05/20 13:09:42;;;;;;;2.30;0.70;;;28.30;48.60;;;;;;4945673;28;20150;-78
2022/05/20 13:12:14;;;;;;;2.97;0.65;;;28.10;48.80;;;;;;4958483;28;20038;-78
2022/05/20 13:14:40;;;;;;;2.35;0.93;;;27.90;49.20;;;;;;4978901;28;20023;-78
2022/05/20 13:17:08;;;;;;;3.60;1.27;;;27.80;49.30;;;;;;4965894;28;20497;-78
2022/05/20 13:19:47;;;;;;;2.50;0.90;;;27.90;49.40;;;;;;4966432;28;20035;-79
2022/05/20 13:22:16;;;;;;;4.25;0.77;;;28.00;49.10;;;;;;4973019;28;20027;-80
2022/05/20 13:24:42;;;;;;;3.40;0.77;;;28.20;48.90;;;;;;4976090;28;20045;-78
2022/05/20 13:27:14;;;;;;;2.33;0.80;;;28.50;48.70;;;;;;4982114;28;20034;-76
2022/05/20 13:29:42;;;;;;;4.03;1.08;;;28.70;48.50;;;;;;4982528;28;20053;-84
2022/05/20 13:32:27;;;;;;;2.10;1.05;;;28.80;48.30;;;;;;4983770;28;20039;-78
2022/05/20 13:34:55;;;;;;;5.65;0.98;;;29.00;48.00;;;;;;4980274;28;20038;-78
2022/05/20 13:37:28;;;;;;;3.13;0.75;;;29.20;47.90;;;;;;4978277;28;20031;-78
2022/05/20 13:40:14;;;;;;;2.72;0.70;;;29.70;47.40;;;;;;4983137;28;20116;-78
2022/05/20 13:42:47;;;;;;;3.33;0.80;;;30.20;46.80;;;;;;4978538;28;20054;-78
2022/05/20 13:45:15;;;;;;;2.63;0.82;;;30.50;46.20;;;;;;4977333;28;20045;-78
2022/05/20 13:50:27;;;;;;;3.17;1.40;;;30.90;45.90;;;;;;4976995;28;20328;-78
2022/05/20 13:52:57;;;;;;;3.63;1.20;;;31.00;45.80;;;;;;4965203;28;20038;-78
2022/05/20 13:55:30;;;;;;;4.53;1.55;;;30.90;45.60;;;;;;4981531;28;20488;-76
2022/05/20 13:57:57;;;;;;;2.33;0.75;;;30.80;45.50;;;;;;4965153;28;20034;-80
2022/05/20 14:00:34;;;;;;;2.08;0.95;;;30.60;45.60;;;;;;4964315;28;20096;-79